sensor_id;sensor_type;location;lat;lon;timestamp;temperature;humidity
22450;DHT22;11392;57.390;-2.468;2023-06-14T00:00:33;15.80;99.90
22450;DHT22;11392;57.390;-2.468;2023-06-14T00:03:02;15.80;99.90
22450;DHT22;11392;57.390;-2.468;2023-06-14T00:05:31;15.70;99.90
22450;DHT22;11392;57.390;-2.468;2023-06-14T00:08:05;15.60;99.90
22450;DHT22;11392;57.390;-2.468;2023-06-14T00:10:35;15.60;99.90
22450;DHT22;11392;57.390;-2.468;2023-06-14T00:13:03;15.60;99.90
22450;DHT22;11392;57.390;-2.468;2023-06-14T00:15:34;15.60;99.90
22450;DHT22;11392;57.390;-2.468;2023-06-14T00:18:02;15.50;99.90
22450;DHT22;11392;57.390;-2.468;2023-06-14T00:20:31;15.60;99.90
22450;DHT22;11392;57.390;-2.468;2023-06-14T00:23:00;15.70;99.90
22450;DHT22;11392;57.390;-2.468;2023-06-14T00:25:28;15.60;99.90
22450;DHT22;11392;57.390;-2.468;2023-06-14T00:27:57;15.60;99.90
22450;DHT22;11392;57.390;-2.468;2023-06-14T00:30:25;15.50;99.90
22450;DHT22;11392;57.390;-2.468;2023-06-14T00:32:52;15.50;99.90
22450;DHT22;11392;57.390;-2.468;2023-06-14T00:35:19;15.50;99.90
22450;DHT22;11392;57.390;-2.468;2023-06-14T00:37:46;15.40;99.90
22450;DHT22;11392;57.390;-2.468;2023-06-14T00:40:13;15.30;99.90
22450;DHT22;11392;57.390;-2.468;2023-06-14T00:42:41;15.20;99.90
22450;DHT22;11392;57.390;-2.468;2023-06-14T00:45:08;15.10;99.90
22450;DHT22;11392;57.390;-2.468;2023-06-14T00:47:37;15.00;99.90
22450;DHT22;11392;57.390;-2.468;2023-06-14T00:50:09;14.90;99.90
22450;DHT22;11392;57.390;-2.468;2023-06-14T00:52:37;14.90;99.90
22450;DHT22;11392;57.390;-2.468;2023-06-14T00:55:04;14.80;99.90
22450;DHT22;11392;57.390;-2.468;2023-06-14T00:57:32;14.90;99.90
22450;DHT22;11392;57.390;-2.468;2023-06-14T00:59:59;14.70;99.90
22450;DHT22;11392;57.390;-2.468;2023-06-14T01:02:26;14.70;99.90
22450;DHT22;11392;57.390;-2.468;2023-06-14T01:04:53;14.70;99.90
22450;DHT22;11392;57.390;-2.468;2023-06-14T01:10:19;14.40;99.90
22450;DHT22;11392;57.390;-2.468;2023-06-14T01:12:58;14.40;99.90
22450;DHT22;11392;57.390;-2.468;2023-06-14T01:15:30;14.40;99.90
22450;DHT22;11392;57.390;-2.468;2023-06-14T01:17:57;14.50;99.90
22450;DHT22;11392;57.390;-2.468;2023-06-14T01:20:32;14.40;99.90
22450;DHT22;11392;57.390;-2.468;2023-06-14T01:22:59;14.40;99.90
22450;DHT22;11392;57.390;-2.468;2023-06-14T01:25:27;14.30;99.90
22450;DHT22;11392;57.390;-2.468;2023-06-14T01:28:03;14.30;99.90
22450;DHT22;11392;57.390;-2.468;2023-06-14T01:30:31;14.20;99.90
22450;DHT22;11392;57.390;-2.468;2023-06-14T01:33:01;14.30;99.90
22450;DHT22;11392;57.390;-2.468;2023-06-14T01:35:28;14.30;99.90
22450;DHT22;11392;57.390;-2.468;2023-06-14T01:37:56;14.30;99.90
22450;DHT22;11392;57.390;-2.468;2023-06-14T01:40:24;14.30;99.90
22450;DHT22;11392;57.390;-2.468;2023-06-14T01:42:52;14.30;99.90
22450;DHT22;11392;57.390;-2.468;2023-06-14T01:45:21;14.40;99.90
22450;DHT22;11392;57.390;-2.468;2023-06-14T01:47:50;14.30;99.90
22450;DHT22;11392;57.390;-2.468;2023-06-14T01:50:20;14.40;99.90
22450;DHT22;11392;57.390;-2.468;2023-06-14T01:52:47;14.40;99.90
22450;DHT22;11392;57.390;-2.468;2023-06-14T01:55:15;14.40;99.90
22450;DHT22;11392;57.390;-2.468;2023-06-14T01:57:44;14.40;99.90
22450;DHT22;11392;57.390;-2.468;2023-06-14T02:00:12;14.50;99.90
22450;DHT22;11392;57.390;-2.468;2023-06-14T02:02:40;14.50;99.90
22450;DHT22;11392;57.390;-2.468;2023-06-14T02:05:07;14.30;99.90
22450;DHT22;11392;57.390;-2.468;2023-06-14T02:07:36;14.40;99.90
22450;DHT22;11392;57.390;-2.468;2023-06-14T02:10:04;14.50;99.90
22450;DHT22;11392;57.390;-2.468;2023-06-14T02:12:31;14.40;99.90
22450;DHT22;11392;57.390;-2.468;2023-06-14T02:14:58;14.30;99.90
22450;DHT22;11392;57.390;-2.468;2023-06-14T02:17:25;14.20;99.90
22450;DHT22;11392;57.390;-2.468;2023-06-14T02:19:53;14.20;99.90
22450;DHT22;11392;57.390;-2.468;2023-06-14T02:22:20;14.20;99.90
22450;DHT22;11392;57.390;-2.468;2023-06-14T02:24:48;14.20;99.90
22450;DHT22;11392;57.390;-2.468;2023-06-14T02:27:25;14.30;99.90
22450;DHT22;11392;57.390;-2.468;2023-06-14T02:29:52;14.30;99.90
22450;DHT22;11392;57.390;-2.468;2023-06-14T02:32:19;14.30;99.90
22450;DHT22;11392;57.390;-2.468;2023-06-14T02:34:46;14.40;99.90
22450;DHT22;11392;57.390;-2.468;2023-06-14T02:37:16;14.40;99.90
22450;DHT22;11392;57.390;-2.468;2023-06-14T02:39:43;14.30;99.90
22450;DHT22;11392;57.390;-2.468;2023-06-14T02:42:10;14.30;99.90
22450;DHT22;11392;57.390;-2.468;2023-06-14T02:44:38;14.30;99.90
22450;DHT22;11392;57.390;-2.468;2023-06-14T02:47:05;14.30;99.90
22450;DHT22;11392;57.390;-2.468;2023-06-14T02:49:32;14.20;99.90
22450;DHT22;11392;57.390;-2.468;2023-06-14T02:51:59;14.20;99.90
22450;DHT22;11392;57.390;-2.468;2023-06-14T02:54:26;14.20;99.90
22450;DHT22;11392;57.390;-2.468;2023-06-14T02:56:53;14.20;99.90
22450;DHT22;11392;57.390;-2.468;2023-06-14T02:59:21;14.20;99.90
22450;DHT22;11392;57.390;-2.468;2023-06-14T03:01:48;14.30;99.90
22450;DHT22;11392;57.390;-2.468;2023-06-14T03:04:15;14.30;99.90
22450;DHT22;11392;57.390;-2.468;2023-06-14T03:06:43;14.30;99.90
22450;DHT22;11392;57.390;-2.468;2023-06-14T03:09:11;14.20;99.90
22450;DHT22;11392;57.390;-2.468;2023-06-14T03:11:38;14.10;99.90
22450;DHT22;11392;57.390;-2.468;2023-06-14T03:14:06;14.10;99.90
22450;DHT22;11392;57.390;-2.468;2023-06-14T03:16:34;14.20;99.90
22450;DHT22;11392;57.390;-2.468;2023-06-14T03:19:02;14.10;99.90
22450;DHT22;11392;57.390;-2.468;2023-06-14T03:21:29;14.10;99.90
22450;DHT22;11392;57.390;-2.468;2023-06-14T03:23:56;14.10;99.90
22450;DHT22;11392;57.390;-2.468;2023-06-14T03:26:24;14.10;99.90
22450;DHT22;11392;57.390;-2.468;2023-06-14T03:28:51;14.10;99.90
22450;DHT22;11392;57.390;-2.468;2023-06-14T03:31:18;14.00;99.90
22450;DHT22;11392;57.390;-2.468;2023-06-14T03:33:46;14.00;99.90
22450;DHT22;11392;57.390;-2.468;2023-06-14T03:36:13;14.00;99.90
22450;DHT22;11392;57.390;-2.468;2023-06-14T03:38:40;14.00;99.90
22450;DHT22;11392;57.390;-2.468;2023-06-14T03:41:07;13.90;99.90
22450;DHT22;11392;57.390;-2.468;2023-06-14T03:43:34;13.80;99.90
22450;DHT22;11392;57.390;-2.468;2023-06-14T03:46:01;13.80;99.90
22450;DHT22;11392;57.390;-2.468;2023-06-14T03:48:28;13.80;99.90
22450;DHT22;11392;57.390;-2.468;2023-06-14T03:50:56;13.80;99.90
22450;DHT22;11392;57.390;-2.468;2023-06-14T03:53:27;13.80;99.90
22450;DHT22;11392;57.390;-2.468;2023-06-14T03:55:56;13.80;99.90
22450;DHT22;11392;57.390;-2.468;2023-06-14T03:58:23;13.90;99.90
22450;DHT22;11392;57.390;-2.468;2023-06-14T04:00:51;13.90;99.90
22450;DHT22;11392;57.390;-2.468;2023-06-14T04:03:18;14.00;99.90
22450;DHT22;11392;57.390;-2.468;2023-06-14T04:05:46;14.00;99.90
22450;DHT22;11392;57.390;-2.468;2023-06-14T04:08:16;14.00;99.90
22450;DHT22;11392;57.390;-2.468;2023-06-14T04:10:45;14.10;99.90
22450;DHT22;11392;57.390;-2.468;2023-06-14T04:13:12;14.10;99.90
22450;DHT22;11392;57.390;-2.468;2023-06-14T04:15:40;14.10;99.90
22450;DHT22;11392;57.390;-2.468;2023-06-14T04:18:13;14.20;99.90
22450;DHT22;11392;57.390;-2.468;2023-06-14T04:20:40;14.20;99.90
22450;DHT22;11392;57.390;-2.468;2023-06-14T04:23:16;14.20;99.90
22450;DHT22;11392;57.390;-2.468;2023-06-14T04:25:45;14.20;99.90
22450;DHT22;11392;57.390;-2.468;2023-06-14T04:28:15;14.30;99.90
22450;DHT22;11392;57.390;-2.468;2023-06-14T04:30:43;14.30;99.90
22450;DHT22;11392;57.390;-2.468;2023-06-14T04:33:10;14.40;99.90
22450;DHT22;11392;57.390;-2.468;2023-06-14T04:35:37;14.40;99.90
22450;DHT22;11392;57.390;-2.468;2023-06-14T04:38:05;14.30;99.90
22450;DHT22;11392;57.390;-2.468;2023-06-14T04:40:36;14.30;99.90
22450;DHT22;11392;57.390;-2.468;2023-06-14T04:43:09;14.40;99.90
22450;DHT22;11392;57.390;-2.468;2023-06-14T04:45:38;14.40;99.90
22450;DHT22;11392;57.390;-2.468;2023-06-14T04:48:06;14.40;99.90
22450;DHT22;11392;57.390;-2.468;2023-06-14T04:50:33;14.40;99.90
22450;DHT22;11392;57.390;-2.468;2023-06-14T04:53:01;14.50;99.90
22450;DHT22;11392;57.390;-2.468;2023-06-14T04:55:29;14.50;99.90
22450;DHT22;11392;57.390;-2.468;2023-06-14T04:57:56;14.60;99.90
22450;DHT22;11392;57.390;-2.468;2023-06-14T05:00:23;14.60;99.90
22450;DHT22;11392;57.390;-2.468;2023-06-14T05:02:50;14.70;99.90
22450;DHT22;11392;57.390;-2.468;2023-06-14T05:05:20;14.70;99.90
22450;DHT22;11392;57.390;-2.468;2023-06-14T05:07:47;14.70;99.90
22450;DHT22;11392;57.390;-2.468;2023-06-14T05:10:14;14.80;99.90
22450;DHT22;11392;57.390;-2.468;2023-06-14T05:12:41;14.80;99.90
22450;DHT22;11392;57.390;-2.468;2023-06-14T05:15:10;14.80;99.90
22450;DHT22;11392;57.390;-2.468;2023-06-14T05:17:37;14.90;99.90
22450;DHT22;11392;57.390;-2.468;2023-06-14T05:20:07;14.90;99.90
22450;DHT22;11392;57.390;-2.468;2023-06-14T05:22:37;15.00;99.90
22450;DHT22;11392;57.390;-2.468;2023-06-14T05:25:04;15.10;99.90
22450;DHT22;11392;57.390;-2.468;2023-06-14T05:27:32;15.10;99.90
22450;DHT22;11392;57.390;-2.468;2023-06-14T05:30:01;15.30;99.90
22450;DHT22;11392;57.390;-2.468;2023-06-14T05:32:28;15.40;99.90
22450;DHT22;11392;57.390;-2.468;2023-06-14T05:34:55;15.50;99.90
22450;DHT22;11392;57.390;-2.468;2023-06-14T05:37:23;15.50;99.90
22450;DHT22;11392;57.390;-2.468;2023-06-14T05:39:50;15.50;99.90
22450;DHT22;11392;57.390;-2.468;2023-06-14T05:42:17;15.50;99.90
22450;DHT22;11392;57.390;-2.468;2023-06-14T05:44:44;15.50;99.90
22450;DHT22;11392;57.390;-2.468;2023-06-14T05:47:11;15.50;99.90
22450;DHT22;11392;57.390;-2.468;2023-06-14T05:49:38;15.60;99.90
22450;DHT22;11392;57.390;-2.468;2023-06-14T05:52:06;15.60;99.90
22450;DHT22;11392;57.390;-2.468;2023-06-14T05:54:33;15.70;99.90
22450;DHT22;11392;57.390;-2.468;2023-06-14T05:57:00;15.70;99.90
22450;DHT22;11392;57.390;-2.468;2023-06-14T05:59:28;15.80;99.90
22450;DHT22;11392;57.390;-2.468;2023-06-14T06:01:55;15.80;99.90
22450;DHT22;11392;57.390;-2.468;2023-06-14T06:04:23;15.90;99.90
22450;DHT22;11392;57.390;-2.468;2023-06-14T06:06:50;15.90;99.90
22450;DHT22;11392;57.390;-2.468;2023-06-14T06:09:18;16.00;99.90
22450;DHT22;11392;57.390;-2.468;2023-06-14T06:11:45;15.90;99.90
22450;DHT22;11392;57.390;-2.468;2023-06-14T06:14:19;15.90;99.90
22450;DHT22;11392;57.390;-2.468;2023-06-14T06:16:46;16.00;99.90
22450;DHT22;11392;57.390;-2.468;2023-06-14T06:19:13;16.10;99.90
22450;DHT22;11392;57.390;-2.468;2023-06-14T06:21:40;16.10;99.90
22450;DHT22;11392;57.390;-2.468;2023-06-14T06:24:08;16.10;99.90
22450;DHT22;11392;57.390;-2.468;2023-06-14T06:26:35;16.20;99.90
22450;DHT22;11392;57.390;-2.468;2023-06-14T06:29:02;16.30;99.90
22450;DHT22;11392;57.390;-2.468;2023-06-14T06:31:29;16.40;99.90
22450;DHT22;11392;57.390;-2.468;2023-06-14T06:33:56;16.50;99.90
22450;DHT22;11392;57.390;-2.468;2023-06-14T06:36:23;16.60;99.90
22450;DHT22;11392;57.390;-2.468;2023-06-14T06:38:50;16.70;99.90
22450;DHT22;11392;57.390;-2.468;2023-06-14T06:41:18;16.80;99.90
22450;DHT22;11392;57.390;-2.468;2023-06-14T06:43:45;17.00;99.90
22450;DHT22;11392;57.390;-2.468;2023-06-14T06:46:12;17.10;99.90
22450;DHT22;11392;57.390;-2.468;2023-06-14T06:48:40;17.30;99.90
22450;DHT22;11392;57.390;-2.468;2023-06-14T06:51:07;17.40;99.90
22450;DHT22;11392;57.390;-2.468;2023-06-14T06:53:34;17.60;99.90
22450;DHT22;11392;57.390;-2.468;2023-06-14T06:56:11;17.70;99.90
22450;DHT22;11392;57.390;-2.468;2023-06-14T06:58:38;17.90;99.90
22450;DHT22;11392;57.390;-2.468;2023-06-14T07:01:05;18.00;99.90
22450;DHT22;11392;57.390;-2.468;2023-06-14T07:03:33;18.20;99.90
22450;DHT22;11392;57.390;-2.468;2023-06-14T07:06:00;18.30;99.90
22450;DHT22;11392;57.390;-2.468;2023-06-14T07:08:27;18.30;99.90
22450;DHT22;11392;57.390;-2.468;2023-06-14T07:10:54;18.40;99.90
22450;DHT22;11392;57.390;-2.468;2023-06-14T07:13:22;18.60;99.90
22450;DHT22;11392;57.390;-2.468;2023-06-14T07:15:49;18.70;99.90
22450;DHT22;11392;57.390;-2.468;2023-06-14T07:18:16;18.80;99.90
22450;DHT22;11392;57.390;-2.468;2023-06-14T07:20:43;18.90;99.90
22450;DHT22;11392;57.390;-2.468;2023-06-14T07:23:10;19.00;99.90
22450;DHT22;11392;57.390;-2.468;2023-06-14T07:25:37;19.10;99.90
22450;DHT22;11392;57.390;-2.468;2023-06-14T07:28:04;19.30;99.90
22450;DHT22;11392;57.390;-2.468;2023-06-14T07:30:32;19.50;99.90
22450;DHT22;11392;57.390;-2.468;2023-06-14T07:33:00;19.70;99.90
22450;DHT22;11392;57.390;-2.468;2023-06-14T07:35:27;19.90;99.90
22450;DHT22;11392;57.390;-2.468;2023-06-14T07:37:54;20.10;99.90
22450;DHT22;11392;57.390;-2.468;2023-06-14T07:40:21;20.30;99.90
22450;DHT22;11392;57.390;-2.468;2023-06-14T07:42:48;20.60;99.90
22450;DHT22;11392;57.390;-2.468;2023-06-14T07:45:17;20.80;99.90
22450;DHT22;11392;57.390;-2.468;2023-06-14T07:47:45;21.10;99.90
22450;DHT22;11392;57.390;-2.468;2023-06-14T07:50:12;21.30;99.90
22450;DHT22;11392;57.390;-2.468;2023-06-14T07:52:40;21.30;99.90
22450;DHT22;11392;57.390;-2.468;2023-06-14T07:55:07;21.40;99.90
22450;DHT22;11392;57.390;-2.468;2023-06-14T07:57:35;21.60;99.90
22450;DHT22;11392;57.390;-2.468;2023-06-14T08:00:03;21.70;99.90
22450;DHT22;11392;57.390;-2.468;2023-06-14T08:02:33;22.00;99.90
22450;DHT22;11392;57.390;-2.468;2023-06-14T08:05:00;22.30;99.90
22450;DHT22;11392;57.390;-2.468;2023-06-14T08:07:27;22.50;99.90
22450;DHT22;11392;57.390;-2.468;2023-06-14T08:09:54;22.40;99.90
22450;DHT22;11392;57.390;-2.468;2023-06-14T08:12:22;22.50;99.90
22450;DHT22;11392;57.390;-2.468;2023-06-14T08:14:49;22.90;99.90
22450;DHT22;11392;57.390;-2.468;2023-06-14T08:17:34;23.00;99.90
22450;DHT22;11392;57.390;-2.468;2023-06-14T08:20:03;23.30;99.90
22450;DHT22;11392;57.390;-2.468;2023-06-14T08:22:32;23.40;99.90
22450;DHT22;11392;57.390;-2.468;2023-06-14T08:25:03;23.70;99.90
22450;DHT22;11392;57.390;-2.468;2023-06-14T08:27:30;23.80;99.90
22450;DHT22;11392;57.390;-2.468;2023-06-14T08:29:58;23.70;99.90
22450;DHT22;11392;57.390;-2.468;2023-06-14T08:32:24;23.60;99.90
22450;DHT22;11392;57.390;-2.468;2023-06-14T08:34:52;23.60;99.90
22450;DHT22;11392;57.390;-2.468;2023-06-14T08:37:31;23.80;99.90
22450;DHT22;11392;57.390;-2.468;2023-06-14T08:40:00;24.10;99.90
22450;DHT22;11392;57.390;-2.468;2023-06-14T08:42:30;24.20;99.90
22450;DHT22;11392;57.390;-2.468;2023-06-14T08:44:58;24.40;99.90
22450;DHT22;11392;57.390;-2.468;2023-06-14T08:47:26;24.30;99.90
22450;DHT22;11392;57.390;-2.468;2023-06-14T08:49:57;24.40;99.90
22450;DHT22;11392;57.390;-2.468;2023-06-14T08:52:25;24.70;99.90
22450;DHT22;11392;57.390;-2.468;2023-06-14T08:54:57;24.70;99.90
22450;DHT22;11392;57.390;-2.468;2023-06-14T08:57:27;24.90;99.90
22450;DHT22;11392;57.390;-2.468;2023-06-14T08:59:57;25.10;99.90
22450;DHT22;11392;57.390;-2.468;2023-06-14T09:02:28;25.10;99.90
22450;DHT22;11392;57.390;-2.468;2023-06-14T09:04:56;25.30;99.90
22450;DHT22;11392;57.390;-2.468;2023-06-14T09:07:26;25.40;99.90
22450;DHT22;11392;57.390;-2.468;2023-06-14T09:10:14;25.60;99.90
22450;DHT22;11392;57.390;-2.468;2023-06-14T09:12:42;25.80;99.90
22450;DHT22;11392;57.390;-2.468;2023-06-14T09:15:10;25.90;99.90
22450;DHT22;11392;57.390;-2.468;2023-06-14T09:17:39;26.30;99.90
22450;DHT22;11392;57.390;-2.468;2023-06-14T09:20:07;26.50;99.90
22450;DHT22;11392;57.390;-2.468;2023-06-14T09:22:41;26.70;99.90
22450;DHT22;11392;57.390;-2.468;2023-06-14T09:25:08;27.00;99.90
22450;DHT22;11392;57.390;-2.468;2023-06-14T09:27:47;27.20;99.90
22450;DHT22;11392;57.390;-2.468;2023-06-14T09:30:15;27.20;99.90
22450;DHT22;11392;57.390;-2.468;2023-06-14T09:32:42;27.20;99.90
22450;DHT22;11392;57.390;-2.468;2023-06-14T09:35:09;27.20;99.90
22450;DHT22;11392;57.390;-2.468;2023-06-14T09:37:37;27.20;99.90
22450;DHT22;11392;57.390;-2.468;2023-06-14T09:40:06;27.20;99.90
22450;DHT22;11392;57.390;-2.468;2023-06-14T09:42:33;27.50;99.90
22450;DHT22;11392;57.390;-2.468;2023-06-14T09:45:03;27.70;99.90
22450;DHT22;11392;57.390;-2.468;2023-06-14T09:47:31;27.90;99.90
22450;DHT22;11392;57.390;-2.468;2023-06-14T09:49:58;27.60;99.90
22450;DHT22;11392;57.390;-2.468;2023-06-14T09:52:27;27.80;99.90
22450;DHT22;11392;57.390;-2.468;2023-06-14T09:54:55;27.80;99.90
22450;DHT22;11392;57.390;-2.468;2023-06-14T09:57:23;28.10;99.90
22450;DHT22;11392;57.390;-2.468;2023-06-14T09:59:57;28.20;99.90
22450;DHT22;11392;57.390;-2.468;2023-06-14T10:02:35;28.50;99.90
22450;DHT22;11392;57.390;-2.468;2023-06-14T10:05:09;28.20;99.90
22450;DHT22;11392;57.390;-2.468;2023-06-14T10:07:58;28.60;99.90
22450;DHT22;11392;57.390;-2.468;2023-06-14T10:10:26;28.50;99.90
22450;DHT22;11392;57.390;-2.468;2023-06-14T10:12:54;28.80;99.90
22450;DHT22;11392;57.390;-2.468;2023-06-14T10:15:41;29.00;99.90
22450;DHT22;11392;57.390;-2.468;2023-06-14T10:18:30;29.10;99.90
22450;DHT22;11392;57.390;-2.468;2023-06-14T10:24:08;29.50;99.90
22450;DHT22;11392;57.390;-2.468;2023-06-14T10:26:50;29.10;99.90
22450;DHT22;11392;57.390;-2.468;2023-06-14T10:29:17;29.20;99.90
22450;DHT22;11392;57.390;-2.468;2023-06-14T10:31:49;29.00;99.90
22450;DHT22;11392;57.390;-2.468;2023-06-14T10:34:30;29.30;99.90
22450;DHT22;11392;57.390;-2.468;2023-06-14T10:37:11;29.40;99.90
22450;DHT22;11392;57.390;-2.468;2023-06-14T10:39:43;29.50;99.90
22450;DHT22;11392;57.390;-2.468;2023-06-14T10:42:14;29.60;99.90
22450;DHT22;11392;57.390;-2.468;2023-06-14T10:44:54;29.80;99.90
22450;DHT22;11392;57.390;-2.468;2023-06-14T10:52:29;29.80;99.90
22450;DHT22;11392;57.390;-2.468;2023-06-14T10:57:47;29.90;99.90
22450;DHT22;11392;57.390;-2.468;2023-06-14T11:00:21;30.10;99.90
22450;DHT22;11392;57.390;-2.468;2023-06-14T11:05:54;30.50;99.90
22450;DHT22;11392;57.390;-2.468;2023-06-14T11:11:25;31.00;99.90
22450;DHT22;11392;57.390;-2.468;2023-06-14T11:13:56;30.90;99.90
22450;DHT22;11392;57.390;-2.468;2023-06-14T11:16:26;30.90;99.90
22450;DHT22;11392;57.390;-2.468;2023-06-14T11:18:55;31.10;99.90
22450;DHT22;11392;57.390;-2.468;2023-06-14T11:21:23;30.80;99.90
22450;DHT22;11392;57.390;-2.468;2023-06-14T11:23:53;30.60;99.90
22450;DHT22;11392;57.390;-2.468;2023-06-14T11:26:31;30.70;99.90
22450;DHT22;11392;57.390;-2.468;2023-06-14T11:29:01;30.90;99.90
22450;DHT22;11392;57.390;-2.468;2023-06-14T11:31:29;30.70;99.90
22450;DHT22;11392;57.390;-2.468;2023-06-14T11:33:58;30.90;99.90
22450;DHT22;11392;57.390;-2.468;2023-06-14T11:36:29;31.00;99.90
22450;DHT22;11392;57.390;-2.468;2023-06-14T11:39:02;30.80;99.90
22450;DHT22;11392;57.390;-2.468;2023-06-14T11:41:44;30.90;99.90
22450;DHT22;11392;57.390;-2.468;2023-06-14T11:44:11;30.70;99.90
22450;DHT22;11392;57.390;-2.468;2023-06-14T11:46:38;30.70;99.90
22450;DHT22;11392;57.390;-2.468;2023-06-14T11:49:07;30.70;99.90
22450;DHT22;11392;57.390;-2.468;2023-06-14T11:51:36;30.80;99.90
22450;DHT22;11392;57.390;-2.468;2023-06-14T11:54:05;30.70;99.90
22450;DHT22;11392;57.390;-2.468;2023-06-14T11:56:33;30.70;99.90
22450;DHT22;11392;57.390;-2.468;2023-06-14T11:59:02;31.00;99.90
22450;DHT22;11392;57.390;-2.468;2023-06-14T12:01:36;31.20;99.90
22450;DHT22;11392;57.390;-2.468;2023-06-14T12:04:06;31.50;99.90
22450;DHT22;11392;57.390;-2.468;2023-06-14T12:06:33;31.40;99.90
22450;DHT22;11392;57.390;-2.468;2023-06-14T12:09:04;31.40;99.90
22450;DHT22;11392;57.390;-2.468;2023-06-14T12:11:35;31.50;99.90
22450;DHT22;11392;57.390;-2.468;2023-06-14T12:14:04;31.10;99.90
22450;DHT22;11392;57.390;-2.468;2023-06-14T12:16:33;31.10;99.90
22450;DHT22;11392;57.390;-2.468;2023-06-14T12:19:08;31.30;99.80
22450;DHT22;11392;57.390;-2.468;2023-06-14T12:21:38;31.40;99.90
22450;DHT22;11392;57.390;-2.468;2023-06-14T12:24:08;31.10;99.90
22450;DHT22;11392;57.390;-2.468;2023-06-14T12:26:38;31.20;99.20
22450;DHT22;11392;57.390;-2.468;2023-06-14T12:29:07;31.20;99.90
22450;DHT22;11392;57.390;-2.468;2023-06-14T12:31:34;31.40;99.90
22450;DHT22;11392;57.390;-2.468;2023-06-14T12:34:01;31.10;99.90
22450;DHT22;11392;57.390;-2.468;2023-06-14T12:36:28;31.20;99.90
22450;DHT22;11392;57.390;-2.468;2023-06-14T12:38:56;31.50;99.60
22450;DHT22;11392;57.390;-2.468;2023-06-14T12:41:23;31.40;99.90
22450;DHT22;11392;57.390;-2.468;2023-06-14T12:43:51;31.40;99.70
22450;DHT22;11392;57.390;-2.468;2023-06-14T12:46:18;31.50;99.60
22450;DHT22;11392;57.390;-2.468;2023-06-14T12:48:46;31.30;99.60
22450;DHT22;11392;57.390;-2.468;2023-06-14T12:51:13;31.10;99.90
22450;DHT22;11392;57.390;-2.468;2023-06-14T12:53:40;31.30;99.90
22450;DHT22;11392;57.390;-2.468;2023-06-14T12:56:08;31.40;99.10
22450;DHT22;11392;57.390;-2.468;2023-06-14T12:58:35;31.50;98.50
22450;DHT22;11392;57.390;-2.468;2023-06-14T13:01:03;31.40;99.10
22450;DHT22;11392;57.390;-2.468;2023-06-14T13:03:30;31.20;98.60
22450;DHT22;11392;57.390;-2.468;2023-06-14T13:05:57;31.40;99.00
22450;DHT22;11392;57.390;-2.468;2023-06-14T13:08:24;31.40;99.90
22450;DHT22;11392;57.390;-2.468;2023-06-14T13:10:52;31.10;98.20
22450;DHT22;11392;57.390;-2.468;2023-06-14T13:13:19;31.10;99.90
22450;DHT22;11392;57.390;-2.468;2023-06-14T13:15:45;31.20;97.70
22450;DHT22;11392;57.390;-2.468;2023-06-14T13:18:13;31.00;97.70
22450;DHT22;11392;57.390;-2.468;2023-06-14T13:20:40;31.10;96.70
22450;DHT22;11392;57.390;-2.468;2023-06-14T13:23:08;31.20;97.70
22450;DHT22;11392;57.390;-2.468;2023-06-14T13:25:37;31.30;96.70
22450;DHT22;11392;57.390;-2.468;2023-06-14T13:28:05;31.20;97.10
22450;DHT22;11392;57.390;-2.468;2023-06-14T13:30:32;31.30;96.60
22450;DHT22;11392;57.390;-2.468;2023-06-14T13:33:00;31.40;96.40
22450;DHT22;11392;57.390;-2.468;2023-06-14T13:35:28;31.50;96.80
22450;DHT22;11392;57.390;-2.468;2023-06-14T13:37:55;31.50;97.90
22450;DHT22;11392;57.390;-2.468;2023-06-14T13:40:22;31.70;96.00
22450;DHT22;11392;57.390;-2.468;2023-06-14T13:42:50;31.80;95.90
22450;DHT22;11392;57.390;-2.468;2023-06-14T13:45:17;31.50;96.20
22450;DHT22;11392;57.390;-2.468;2023-06-14T13:47:44;31.50;97.30
22450;DHT22;11392;57.390;-2.468;2023-06-14T13:50:16;31.40;97.60
22450;DHT22;11392;57.390;-2.468;2023-06-14T13:52:44;31.00;96.50
22450;DHT22;11392;57.390;-2.468;2023-06-14T13:55:11;30.80;96.30
22450;DHT22;11392;57.390;-2.468;2023-06-14T13:57:39;30.80;98.00
22450;DHT22;11392;57.390;-2.468;2023-06-14T14:00:07;30.80;97.60
22450;DHT22;11392;57.390;-2.468;2023-06-14T14:02:35;31.00;96.50
22450;DHT22;11392;57.390;-2.468;2023-06-14T14:05:02;30.90;96.80
22450;DHT22;11392;57.390;-2.468;2023-06-14T14:07:31;30.60;96.90
22450;DHT22;11392;57.390;-2.468;2023-06-14T14:09:58;30.70;96.80
22450;DHT22;11392;57.390;-2.468;2023-06-14T14:12:27;30.70;95.50
22450;DHT22;11392;57.390;-2.468;2023-06-14T14:14:55;30.70;96.10
22450;DHT22;11392;57.390;-2.468;2023-06-14T14:17:22;30.50;96.30
22450;DHT22;11392;57.390;-2.468;2023-06-14T14:19:50;30.20;95.10
22450;DHT22;11392;57.390;-2.468;2023-06-14T14:22:17;30.10;96.00
22450;DHT22;11392;57.390;-2.468;2023-06-14T14:24:44;29.80;95.90
22450;DHT22;11392;57.390;-2.468;2023-06-14T14:27:11;29.90;96.20
22450;DHT22;11392;57.390;-2.468;2023-06-14T14:29:38;30.00;96.30
22450;DHT22;11392;57.390;-2.468;2023-06-14T14:32:05;29.80;96.80
22450;DHT22;11392;57.390;-2.468;2023-06-14T14:34:33;29.80;95.60
22450;DHT22;11392;57.390;-2.468;2023-06-14T14:37:00;29.90;96.80
22450;DHT22;11392;57.390;-2.468;2023-06-14T14:39:27;29.80;97.00
22450;DHT22;11392;57.390;-2.468;2023-06-14T14:41:55;30.00;97.30
22450;DHT22;11392;57.390;-2.468;2023-06-14T14:44:21;29.90;95.80
22450;DHT22;11392;57.390;-2.468;2023-06-14T14:46:49;29.80;94.70
22450;DHT22;11392;57.390;-2.468;2023-06-14T14:49:17;29.70;94.80
22450;DHT22;11392;57.390;-2.468;2023-06-14T14:51:44;29.70;95.10
22450;DHT22;11392;57.390;-2.468;2023-06-14T14:54:12;29.40;95.30
22450;DHT22;11392;57.390;-2.468;2023-06-14T14:56:39;29.30;95.20
22450;DHT22;11392;57.390;-2.468;2023-06-14T14:59:06;29.50;95.40
22450;DHT22;11392;57.390;-2.468;2023-06-14T15:01:34;29.70;95.80
22450;DHT22;11392;57.390;-2.468;2023-06-14T15:04:01;29.60;95.70
22450;DHT22;11392;57.390;-2.468;2023-06-14T15:06:28;29.40;96.00
22450;DHT22;11392;57.390;-2.468;2023-06-14T15:08:56;29.40;94.50
22450;DHT22;11392;57.390;-2.468;2023-06-14T15:11:23;29.30;96.20
22450;DHT22;11392;57.390;-2.468;2023-06-14T15:13:51;29.10;95.70
22450;DHT22;11392;57.390;-2.468;2023-06-14T15:16:18;28.90;95.40
22450;DHT22;11392;57.390;-2.468;2023-06-14T15:18:46;29.10;95.10
22450;DHT22;11392;57.390;-2.468;2023-06-14T15:21:13;28.60;95.70
22450;DHT22;11392;57.390;-2.468;2023-06-14T15:23:40;28.70;96.30
22450;DHT22;11392;57.390;-2.468;2023-06-14T15:26:07;28.70;94.80
22450;DHT22;11392;57.390;-2.468;2023-06-14T15:28:35;28.70;95.10
22450;DHT22;11392;57.390;-2.468;2023-06-14T15:31:03;28.50;96.50
22450;DHT22;11392;57.390;-2.468;2023-06-14T15:33:30;28.30;95.90
22450;DHT22;11392;57.390;-2.468;2023-06-14T15:35:58;28.40;95.40
22450;DHT22;11392;57.390;-2.468;2023-06-14T15:38:26;28.40;94.70
22450;DHT22;11392;57.390;-2.468;2023-06-14T15:40:55;28.20;95.50
22450;DHT22;11392;57.390;-2.468;2023-06-14T15:43:22;28.00;94.70